sensor_id;sensor_type;location;lat;lon;timestamp;P1;durP1;ratioP1;P2;durP2;ratioP2
71963;SDS011;59834;52.124;5.422;2022-12-20T00:00:59;3.03;;;1.07;;
71963;SDS011;59834;52.124;5.422;2022-12-20T00:03:25;3.28;;;0.70;;
71963;SDS011;59834;52.124;5.422;2022-12-20T00:05:52;4.57;;;1.73;;
71963;SDS011;59834;52.124;5.422;2022-12-20T00:08:18;2.70;;;1.27;;
71963;SDS011;59834;52.124;5.422;2022-12-20T00:10:45;1.75;;;0.65;;
71963;SDS011;59834;52.124;5.422;2022-12-20T00:13:12;2.17;;;0.70;;
71963;SDS011;59834;52.124;5.422;2022-12-20T00:15:38;3.47;;;0.75;;
71963;SDS011;59834;52.124;5.422;2022-12-20T00:18:05;2.65;;;0.80;;
71963;SDS011;59834;52.124;5.422;2022-12-20T00:20:32;3.42;;;0.75;;
71963;SDS011;59834;52.124;5.422;2022-12-20T00:22:59;6.38;;;0.98;;
71963;SDS011;59834;52.124;5.422;2022-12-20T00:25:25;4.03;;;1.20;;
71963;SDS011;59834;52.124;5.422;2022-12-20T00:27:52;3.60;;;0.80;;
71963;SDS011;59834;52.124;5.422;2022-12-20T00:30:18;2.67;;;0.98;;
71963;SDS011;59834;52.124;5.422;2022-12-20T00:32:45;1.73;;;0.65;;
71963;SDS011;59834;52.124;5.422;2022-12-20T00:35:12;3.25;;;0.85;;
71963;SDS011;59834;52.124;5.422;2022-12-20T00:37:39;2.77;;;0.80;;
71963;SDS011;59834;52.124;5.422;2022-12-20T00:40:06;3.05;;;0.52;;
71963;SDS011;59834;52.124;5.422;2022-12-20T00:42:38;1.83;;;0.68;;
71963;SDS011;59834;52.124;5.422;2022-12-20T00:45:10;1.75;;;0.63;;
71963;SDS011;59834;52.124;5.422;2022-12-20T00:47:37;2.08;;;0.73;;
71963;SDS011;59834;52.124;5.422;2022-12-20T00:50:04;4.10;;;0.80;;
71963;SDS011;59834;52.124;5.422;2022-12-20T00:52:31;3.05;;;0.65;;
71963;SDS011;59834;52.124;5.422;2022-12-20T00:54:57;2.75;;;0.75;;
71963;SDS011;59834;52.124;5.422;2022-12-20T00:57:24;2.28;;;0.50;;
71963;SDS011;59834;52.124;5.422;2022-12-20T00:59:50;3.13;;;0.68;;
71963;SDS011;59834;52.124;5.422;2022-12-20T01:02:17;1.90;;;0.60;;
71963;SDS011;59834;52.124;5.422;2022-12-20T01:04:44;2.05;;;0.60;;
71963;SDS011;59834;52.124;5.422;2022-12-20T01:07:10;1.63;;;0.65;;
71963;SDS011;59834;52.124;5.422;2022-12-20T01:09:37;3.22;;;0.60;;
71963;SDS011;59834;52.124;5.422;2022-12-20T01:12:04;2.85;;;0.65;;
71963;SDS011;59834;52.124;5.422;2022-12-20T01:14:31;1.87;;;0.60;;
71963;SDS011;59834;52.124;5.422;2022-12-20T01:16:57;3.70;;;0.57;;
71963;SDS011;59834;52.124;5.422;2022-12-20T01:19:25;2.00;;;0.60;;
71963;SDS011;59834;52.124;5.422;2022-12-20T01:21:51;6.13;;;1.05;;
71963;SDS011;59834;52.124;5.422;2022-12-20T01:24:18;1.90;;;0.50;;
71963;SDS011;59834;52.124;5.422;2022-12-20T01:26:45;1.50;;;0.60;;
71963;SDS011;59834;52.124;5.422;2022-12-20T01:29:12;2.08;;;0.60;;
71963;SDS011;59834;52.124;5.422;2022-12-20T01:31:40;2.17;;;0.60;;
71963;SDS011;59834;52.124;5.422;2022-12-20T01:34:08;1.65;;;0.70;;
71963;SDS011;59834;52.124;5.422;2022-12-20T01:36:35;2.92;;;0.63;;
71963;SDS011;59834;52.124;5.422;2022-12-20T01:39:05;1.93;;;0.67;;
71963;SDS011;59834;52.124;5.422;2022-12-20T01:41:35;6.28;;;1.30;;
71963;SDS011;59834;52.124;5.422;2022-12-20T01:44:47;3.13;;;0.77;;
71963;SDS011;59834;52.124;5.422;2022-12-20T01:46:51;2.88;;;0.80;;
71963;SDS011;59834;52.124;5.422;2022-12-20T01:49:33;3.70;;;0.70;;
71963;SDS011;59834;52.124;5.422;2022-12-20T01:52:08;2.07;;;0.80;;
71963;SDS011;59834;52.124;5.422;2022-12-20T01:54:43;3.90;;;1.00;;
71963;SDS011;59834;52.124;5.422;2022-12-20T02:00:27;3.35;;;0.80;;
71963;SDS011;59834;52.124;5.422;2022-12-20T02:02:54;2.72;;;1.08;;
71963;SDS011;59834;52.124;5.422;2022-12-20T02:05:25;4.23;;;1.20;;
71963;SDS011;59834;52.124;5.422;2022-12-20T02:07:53;3.53;;;0.90;;
71963;SDS011;59834;52.124;5.422;2022-12-20T02:10:22;4.82;;;1.27;;
71963;SDS011;59834;52.124;5.422;2022-12-20T02:12:56;6.28;;;0.93;;
71963;SDS011;59834;52.124;5.422;2022-12-20T02:15:34;5.72;;;1.00;;
71963;SDS011;59834;52.124;5.422;2022-12-20T02:18:27;3.43;;;0.93;;
71963;SDS011;59834;52.124;5.422;2022-12-20T02:21:06;3.03;;;1.02;;
71963;SDS011;59834;52.124;5.422;2022-12-20T02:24:06;2.95;;;1.00;;
71963;SDS011;59834;52.124;5.422;2022-12-20T02:29:35;3.15;;;1.20;;
71963;SDS011;59834;52.124;5.422;2022-12-20T02:32:13;2.20;;;1.00;;
71963;SDS011;59834;52.124;5.422;2022-12-20T02:34:45;3.58;;;1.08;;
71963;SDS011;59834;52.124;5.422;2022-12-20T02:37:12;6.75;;;0.90;;
71963;SDS011;59834;52.124;5.422;2022-12-20T02:39:39;3.33;;;0.98;;
71963;SDS011;59834;52.124;5.422;2022-12-20T02:42:17;2.85;;;0.90;;
71963;SDS011;59834;52.124;5.422;2022-12-20T02:44:58;1.60;;;0.97;;
71963;SDS011;59834;52.124;5.422;2022-12-20T02:50:31;2.78;;;1.55;;
71963;SDS011;59834;52.124;5.422;2022-12-20T02:53:02;3.78;;;0.90;;
71963;SDS011;59834;52.124;5.422;2022-12-20T02:55:37;5.00;;;0.93;;
71963;SDS011;59834;52.124;5.422;2022-12-20T02:58:22;4.57;;;0.90;;
71963;SDS011;59834;52.124;5.422;2022-12-20T03:00:56;3.65;;;1.02;;
71963;SDS011;59834;52.124;5.422;2022-12-20T03:03:31;2.67;;;1.00;;
71963;SDS011;59834;52.124;5.422;2022-12-20T03:05:59;3.13;;;0.88;;
71963;SDS011;59834;52.124;5.422;2022-12-20T03:08:25;5.40;;;1.08;;
71963;SDS011;59834;52.124;5.422;2022-12-20T03:10:52;4.50;;;1.30;;
71963;SDS011;59834;52.124;5.422;2022-12-20T03:13:20;1.77;;;0.80;;
71963;SDS011;59834;52.124;5.422;2022-12-20T03:15:48;3.80;;;0.80;;
71963;SDS011;59834;52.124;5.422;2022-12-20T03:18:15;3.45;;;1.05;;
71963;SDS011;59834;52.124;5.422;2022-12-20T03:20:41;3.28;;;1.05;;
71963;SDS011;59834;52.124;5.422;2022-12-20T03:23:08;5.60;;;0.80;;
71963;SDS011;59834;52.124;5.422;2022-12-20T03:25:35;2.10;;;1.00;;
71963;SDS011;59834;52.124;5.422;2022-12-20T03:28:01;2.70;;;0.90;;
71963;SDS011;59834;52.124;5.422;2022-12-20T03:30:28;3.28;;;0.70;;
71963;SDS011;59834;52.124;5.422;2022-12-20T03:32:54;1.25;;;0.55;;
71963;SDS011;59834;52.124;5.422;2022-12-20T03:35:21;2.03;;;0.63;;
71963;SDS011;59834;52.124;5.422;2022-12-20T03:37:48;6.40;;;0.82;;
71963;SDS011;59834;52.124;5.422;2022-12-20T03:40:14;3.58;;;0.80;;
71963;SDS011;59834;52.124;5.422;2022-12-20T03:42:41;3.83;;;0.85;;
71963;SDS011;59834;52.124;5.422;2022-12-20T03:45:08;1.65;;;0.73;;
71963;SDS011;59834;52.124;5.422;2022-12-20T03:47:35;2.37;;;0.90;;
71963;SDS011;59834;52.124;5.422;2022-12-20T03:50:02;2.42;;;0.82;;
71963;SDS011;59834;52.124;5.422;2022-12-20T03:52:29;2.33;;;0.95;;
71963;SDS011;59834;52.124;5.422;2022-12-20T03:54:56;2.15;;;0.93;;
71963;SDS011;59834;52.124;5.422;2022-12-20T03:57:22;4.47;;;0.82;;
71963;SDS011;59834;52.124;5.422;2022-12-20T03:59:49;4.07;;;1.13;;
71963;SDS011;59834;52.124;5.422;2022-12-20T04:02:15;2.17;;;0.75;;
71963;SDS011;59834;52.124;5.422;2022-12-20T04:04:42;5.68;;;1.00;;
71963;SDS011;59834;52.124;5.422;2022-12-20T04:07:09;2.67;;;1.00;;
71963;SDS011;59834;52.124;5.422;2022-12-20T04:09:35;2.65;;;0.90;;
71963;SDS011;59834;52.124;5.422;2022-12-20T04:12:02;2.73;;;0.80;;
71963;SDS011;59834;52.124;5.422;2022-12-20T04:14:29;2.58;;;1.02;;
71963;SDS011;59834;52.124;5.422;2022-12-20T04:16:55;3.05;;;1.00;;
71963;SDS011;59834;52.124;5.422;2022-12-20T04:19:22;6.50;;;1.20;;
71963;SDS011;59834;52.124;5.422;2022-12-20T04:21:49;3.83;;;0.88;;
71963;SDS011;59834;52.124;5.422;2022-12-20T04:24:16;4.33;;;0.97;;
71963;SDS011;59834;52.124;5.422;2022-12-20T04:26:43;4.20;;;0.90;;
71963;SDS011;59834;52.124;5.422;2022-12-20T04:29:09;3.10;;;0.70;;
71963;SDS011;59834;52.124;5.422;2022-12-20T04:31:36;3.67;;;0.90;;
71963;SDS011;59834;52.124;5.422;2022-12-20T04:34:02;2.10;;;0.60;;
71963;SDS011;59834;52.124;5.422;2022-12-20T04:36:29;3.40;;;0.82;;
71963;SDS011;59834;52.124;5.422;2022-12-20T04:38:55;3.35;;;1.15;;
71963;SDS011;59834;52.124;5.422;2022-12-20T04:41:22;3.25;;;0.73;;
71963;SDS011;59834;52.124;5.422;2022-12-20T04:43:52;3.97;;;0.82;;
71963;SDS011;59834;52.124;5.422;2022-12-20T04:46:23;3.37;;;0.70;;
71963;SDS011;59834;52.124;5.422;2022-12-20T04:48:50;1.52;;;0.60;;
71963;SDS011;59834;52.124;5.422;2022-12-20T04:51:24;4.03;;;0.52;;
71963;SDS011;59834;52.124;5.422;2022-12-20T04:53:52;4.22;;;0.93;;
71963;SDS011;59834;52.124;5.422;2022-12-20T04:56:20;2.22;;;0.70;;
71963;SDS011;59834;52.124;5.422;2022-12-20T04:58:49;3.50;;;1.50;;
71963;SDS011;59834;52.124;5.422;2022-12-20T05:01:17;2.42;;;0.88;;
71963;SDS011;59834;52.124;5.422;2022-12-20T05:03:44;7.28;;;1.05;;
71963;SDS011;59834;52.124;5.422;2022-12-20T05:06:12;2.47;;;0.93;;
71963;SDS011;59834;52.124;5.422;2022-12-20T05:08:39;3.15;;;1.02;;
71963;SDS011;59834;52.124;5.422;2022-12-20T05:11:05;2.63;;;1.10;;
71963;SDS011;59834;52.124;5.422;2022-12-20T05:13:33;4.45;;;1.15;;
71963;SDS011;59834;52.124;5.422;2022-12-20T05:15:59;6.47;;;0.95;;
71963;SDS011;59834;52.124;5.422;2022-12-20T05:18:26;2.42;;;0.70;;
71963;SDS011;59834;52.124;5.422;2022-12-20T05:20:54;2.63;;;0.98;;
71963;SDS011;59834;52.124;5.422;2022-12-20T05:23:40;2.23;;;1.20;;
71963;SDS011;59834;52.124;5.422;2022-12-20T05:26:27;2.70;;;0.93;;
71963;SDS011;59834;52.124;5.422;2022-12-20T05:28:56;3.38;;;1.20;;
71963;SDS011;59834;52.124;5.422;2022-12-20T05:31:23;2.90;;;1.05;;
71963;SDS011;59834;52.124;5.422;2022-12-20T05:33:49;2.92;;;0.95;;
71963;SDS011;59834;52.124;5.422;2022-12-20T05:36:16;3.37;;;1.30;;
71963;SDS011;59834;52.124;5.422;2022-12-20T05:38:46;3.20;;;0.93;;
71963;SDS011;59834;52.124;5.422;2022-12-20T05:41:12;3.60;;;0.60;;
71963;SDS011;59834;52.124;5.422;2022-12-20T05:43:39;3.92;;;0.85;;
71963;SDS011;59834;52.124;5.422;2022-12-20T05:46:08;4.10;;;1.23;;
71963;SDS011;59834;52.124;5.422;2022-12-20T05:48:35;3.90;;;1.30;;
71963;SDS011;59834;52.124;5.422;2022-12-20T05:51:03;4.10;;;1.02;;
71963;SDS011;59834;52.124;5.422;2022-12-20T05:53:30;3.10;;;1.40;;
71963;SDS011;59834;52.124;5.422;2022-12-20T05:55:57;5.68;;;1.33;;
71963;SDS011;59834;52.124;5.422;2022-12-20T05:58:24;5.90;;;1.25;;
71963;SDS011;59834;52.124;5.422;2022-12-20T06:00:51;2.40;;;0.70;;
71963;SDS011;59834;52.124;5.422;2022-12-20T06:03:18;3.78;;;0.98;;
71963;SDS011;59834;52.124;5.422;2022-12-20T06:05:44;2.10;;;0.77;;
71963;SDS011;59834;52.124;5.422;2022-12-20T06:08:12;2.50;;;0.73;;
71963;SDS011;59834;52.124;5.422;2022-12-20T06:10:39;3.67;;;0.80;;
71963;SDS011;59834;52.124;5.422;2022-12-20T06:13:07;2.90;;;0.97;;
71963;SDS011;59834;52.124;5.422;2022-12-20T06:15:35;4.47;;;0.80;;
71963;SDS011;59834;52.124;5.422;2022-12-20T06:18:02;2.33;;;0.73;;
71963;SDS011;59834;52.124;5.422;2022-12-20T06:20:32;1.83;;;0.80;;
71963;SDS011;59834;52.124;5.422;2022-12-20T06:23:00;3.22;;;0.82;;
71963;SDS011;59834;52.124;5.422;2022-12-20T06:25:28;3.93;;;0.90;;
71963;SDS011;59834;52.124;5.422;2022-12-20T06:27:57;2.55;;;0.90;;
71963;SDS011;59834;52.124;5.422;2022-12-20T06:30:23;4.35;;;1.08;;
71963;SDS011;59834;52.124;5.422;2022-12-20T06:32:58;1.75;;;0.85;;
71963;SDS011;59834;52.124;5.422;2022-12-20T06:35:25;6.38;;;0.68;;
71963;SDS011;59834;52.124;5.422;2022-12-20T06:37:52;1.80;;;0.73;;
71963;SDS011;59834;52.124;5.422;2022-12-20T06:40:18;2.45;;;0.60;;
71963;SDS011;59834;52.124;5.422;2022-12-20T06:42:45;1.98;;;1.17;;
71963;SDS011;59834;52.124;5.422;2022-12-20T06:45:12;3.40;;;1.45;;
71963;SDS011;59834;52.124;5.422;2022-12-20T06:47:38;1.40;;;0.60;;
71963;SDS011;59834;52.124;5.422;2022-12-20T06:50:05;2.47;;;0.80;;
71963;SDS011;59834;52.124;5.422;2022-12-20T06:52:33;2.17;;;0.60;;
71963;SDS011;59834;52.124;5.422;2022-12-20T06:54:59;2.92;;;0.60;;
71963;SDS011;59834;52.124;5.422;2022-12-20T06:57:26;3.75;;;0.75;;
71963;SDS011;59834;52.124;5.422;2022-12-20T06:59:53;2.03;;;0.65;;
71963;SDS011;59834;52.124;5.422;2022-12-20T07:02:19;1.73;;;0.70;;
71963;SDS011;59834;52.124;5.422;2022-12-20T07:04:47;3.17;;;0.70;;
71963;SDS011;59834;52.124;5.422;2022-12-20T07:07:13;5.10;;;1.00;;
71963;SDS011;59834;52.124;5.422;2022-12-20T07:09:40;4.03;;;0.63;;
71963;SDS011;59834;52.124;5.422;2022-12-20T07:12:08;3.13;;;0.50;;
71963;SDS011;59834;52.124;5.422;2022-12-20T07:14:35;5.70;;;0.70;;
71963;SDS011;59834;52.124;5.422;2022-12-20T07:17:02;2.20;;;0.60;;
71963;SDS011;59834;52.124;5.422;2022-12-20T07:19:29;2.17;;;0.73;;
71963;SDS011;59834;52.124;5.422;2022-12-20T07:21:57;3.25;;;0.40;;
71963;SDS011;59834;52.124;5.422;2022-12-20T07:24:24;1.65;;;0.43;;
71963;SDS011;59834;52.124;5.422;2022-12-20T07:26:51;2.03;;;0.50;;
71963;SDS011;59834;52.124;5.422;2022-12-20T07:29:17;2.65;;;0.70;;
71963;SDS011;59834;52.124;5.422;2022-12-20T07:31:44;3.38;;;0.63;;
71963;SDS011;59834;52.124;5.422;2022-12-20T07:34:11;2.15;;;0.40;;
71963;SDS011;59834;52.124;5.422;2022-12-20T07:36:38;2.97;;;0.57;;
71963;SDS011;59834;52.124;5.422;2022-12-20T07:39:04;3.27;;;0.57;;
71963;SDS011;59834;52.124;5.422;2022-12-20T07:41:31;1.92;;;0.55;;
71963;SDS011;59834;52.124;5.422;2022-12-20T07:43:58;1.65;;;0.50;;
71963;SDS011;59834;52.124;5.422;2022-12-20T07:46:25;4.95;;;0.70;;
71963;SDS011;59834;52.124;5.422;2022-12-20T07:48:53;3.65;;;0.30;;
71963;SDS011;59834;52.124;5.422;2022-12-20T07:51:21;2.97;;;0.60;;
71963;SDS011;59834;52.124;5.422;2022-12-20T07:53:52;2.92;;;0.50;;
71963;SDS011;59834;52.124;5.422;2022-12-20T07:56:24;3.13;;;0.70;;
71963;SDS011;59834;52.124;5.422;2022-12-20T07:58:52;2.72;;;0.50;;
71963;SDS011;59834;52.124;5.422;2022-12-20T08:01:25;2.75;;;0.55;;
71963;SDS011;59834;52.124;5.422;2022-12-20T08:03:55;2.70;;;0.50;;
71963;SDS011;59834;52.124;5.422;2022-12-20T08:06:26;1.35;;;0.40;;
71963;SDS011;59834;52.124;5.422;2022-12-20T08:08:56;1.60;;;0.50;;
71963;SDS011;59834;52.124;5.422;2022-12-20T08:11:26;4.10;;;0.52;;
71963;SDS011;59834;52.124;5.422;2022-12-20T08:13:54;1.63;;;0.50;;
71963;SDS011;59834;52.124;5.422;2022-12-20T08:16:24;2.40;;;0.40;;
71963;SDS011;59834;52.124;5.422;2022-12-20T08:18:51;1.38;;;0.45;;
71963;SDS011;59834;52.124;5.422;2022-12-20T08:21:17;3.40;;;0.47;;
71963;SDS011;59834;52.124;5.422;2022-12-20T08:23:44;0.88;;;0.30;;
71963;SDS011;59834;52.124;5.422;2022-12-20T08:26:10;2.35;;;0.52;;
71963;SDS011;59834;52.124;5.422;2022-12-20T08:28:37;1.93;;;0.40;;
71963;SDS011;59834;52.124;5.422;2022-12-20T08:31:05;2.58;;;0.50;;
71963;SDS011;59834;52.124;5.422;2022-12-20T08:33:35;3.00;;;0.40;;
71963;SDS011;59834;52.124;5.422;2022-12-20T08:36:04;3.30;;;0.40;;
71963;SDS011;59834;52.124;5.422;2022-12-20T08:38:35;1.23;;;0.35;;
71963;SDS011;59834;52.124;5.422;2022-12-20T08:41:03;3.03;;;0.43;;
71963;SDS011;59834;52.124;5.422;2022-12-20T08:43:32;3.85;;;0.65;;
71963;SDS011;59834;52.124;5.422;2022-12-20T08:45:59;2.25;;;0.35;;
71963;SDS011;59834;52.124;5.422;2022-12-20T08:48:26;2.33;;;0.50;;
71963;SDS011;59834;52.124;5.422;2022-12-20T08:50:57;1.92;;;0.30;;
71963;SDS011;59834;52.124;5.422;2022-12-20T08:53:26;2.37;;;0.40;;
71963;SDS011;59834;52.124;5.422;2022-12-20T08:56:02;1.40;;;0.30;;
71963;SDS011;59834;52.124;5.422;2022-12-20T08:58:39;2.50;;;0.50;;
71963;SDS011;59834;52.124;5.422;2022-12-20T09:01:07;3.20;;;0.50;;
71963;SDS011;59834;52.124;5.422;2022-12-20T09:03:35;3.97;;;0.40;;
71963;SDS011;59834;52.124;5.422;2022-12-20T09:06:04;1.33;;;0.30;;
71963;SDS011;59834;52.124;5.422;2022-12-20T09:08:34;2.58;;;0.47;;
71963;SDS011;59834;52.124;5.422;2022-12-20T09:11:12;4.00;;;0.50;;
71963;SDS011;59834;52.124;5.422;2022-12-20T09:13:41;5.75;;;0.70;;
71963;SDS011;59834;52.124;5.422;2022-12-20T09:16:10;4.15;;;0.57;;
71963;SDS011;59834;52.124;5.422;2022-12-20T09:18:39;2.50;;;0.80;;
71963;SDS011;59834;52.124;5.422;2022-12-20T09:21:07;1.58;;;0.40;;
71963;SDS011;59834;52.124;5.422;2022-12-20T09:23:35;2.53;;;0.50;;
71963;SDS011;59834;52.124;5.422;2022-12-20T09:26:06;3.47;;;0.60;;
71963;SDS011;59834;52.124;5.422;2022-12-20T09:28:35;2.40;;;0.50;;
71963;SDS011;59834;52.124;5.422;2022-12-20T09:31:04;3.57;;;0.63;;
71963;SDS011;59834;52.124;5.422;2022-12-20T09:33:32;1.48;;;0.38;;
71963;SDS011;59834;52.124;5.422;2022-12-20T09:36:00;3.90;;;0.60;;
71963;SDS011;59834;52.124;5.422;2022-12-20T09:38:29;4.13;;;0.38;;
71963;SDS011;59834;52.124;5.422;2022-12-20T09:41:07;5.00;;;0.55;;
71963;SDS011;59834;52.124;5.422;2022-12-20T09:43:57;2.10;;;0.60;;
71963;SDS011;59834;52.124;5.422;2022-12-20T09:46:26;2.53;;;0.70;;
71963;SDS011;59834;52.124;5.422;2022-12-20T09:48:55;2.42;;;0.40;;
71963;SDS011;59834;52.124;5.422;2022-12-20T09:57:26;4.50;;;0.60;;
71963;SDS011;59834;52.124;5.422;2022-12-20T10:00:14;1.52;;;0.50;;
71963;SDS011;59834;52.124;5.422;2022-12-20T10:02:42;3.75;;;0.55;;
71963;SDS011;59834;52.124;5.422;2022-12-20T10:05:31;1.73;;;0.50;;
71963;SDS011;59834;52.124;5.422;2022-12-20T10:11:06;2.60;;;0.57;;
71963;SDS011;59834;52.124;5.422;2022-12-20T10:13:42;1.88;;;0.57;;
71963;SDS011;59834;52.124;5.422;2022-12-20T10:25:28;3.33;;;0.50;;
71963;SDS011;59834;52.124;5.422;2022-12-20T10:27:57;2.00;;;0.80;;
71963;SDS011;59834;52.124;5.422;2022-12-20T10:30:28;2.15;;;0.55;;
71963;SDS011;59834;52.124;5.422;2022-12-20T10:32:58;3.63;;;0.80;;
71963;SDS011;59834;52.124;5.422;2022-12-20T10:35:29;4.10;;;0.95;;
71963;SDS011;59834;52.124;5.422;2022-12-20T10:38:04;1.53;;;0.40;;
71963;SDS011;59834;52.124;5.422;2022-12-20T10:40:38;1.92;;;0.75;;
71963;SDS011;59834;52.124;5.422;2022-12-20T10:43:27;3.58;;;0.65;;
71963;SDS011;59834;52.124;5.422;2022-12-20T10:46:05;3.15;;;0.60;;
71963;SDS011;59834;52.124;5.422;2022-12-20T10:48:34;2.83;;;0.65;;
71963;SDS011;59834;52.124;5.422;2022-12-20T10:51:11;3.10;;;0.60;;
71963;SDS011;59834;52.124;5.422;2022-12-20T10:53:49;1.83;;;0.85;;
71963;SDS011;59834;52.124;5.422;2022-12-20T11:01:46;1.70;;;0.60;;
71963;SDS011;59834;52.124;5.422;2022-12-20T11:04:30;4.03;;;0.83;;
71963;SDS011;59834;52.124;5.422;2022-12-20T11:07:02;3.05;;;0.70;;
71963;SDS011;59834;52.124;5.422;2022-12-20T11:09:56;3.10;;;0.93;;
71963;SDS011;59834;52.124;5.422;2022-12-20T11:12:24;4.85;;;0.82;;
71963;SDS011;59834;52.124;5.422;2022-12-20T11:15:06;5.28;;;0.77;;
71963;SDS011;59834;52.124;5.422;2022-12-20T11:17:37;1.87;;;0.53;;
71963;SDS011;59834;52.124;5.422;2022-12-20T11:20:20;3.80;;;0.73;;
71963;SDS011;59834;52.124;5.422;2022-12-20T11:26:11;3.53;;;0.80;;
71963;SDS011;59834;52.124;5.422;2022-12-20T11:29:02;2.53;;;0.77;;
71963;SDS011;59834;52.124;5.422;2022-12-20T11:31:57;4.20;;;1.27;;
71963;SDS011;59834;52.124;5.422;2022-12-20T11:37:48;3.45;;;1.15;;
71963;SDS011;59834;52.124;5.422;2022-12-20T11:48:56;5.38;;;1.33;;
71963;SDS011;59834;52.124;5.422;2022-12-20T11:54:22;2.47;;;1.02;;
71963;SDS011;59834;52.124;5.422;2022-12-20T11:56:55;2.53;;;0.85;;
71963;SDS011;59834;52.124;5.422;2022-12-20T11:59:44;3.30;;;1.03;;
71963;SDS011;59834;52.124;5.422;2022-12-20T12:04:45;5.07;;;1.20;;
71963;SDS011;59834;52.124;5.422;2022-12-20T12:07:18;2.55;;;0.90;;
71963;SDS011;59834;52.124;5.422;2022-12-20T12:09:55;2.47;;;1.10;;
71963;SDS011;59834;52.124;5.422;2022-12-20T12:12:37;4.07;;;1.40;;
71963;SDS011;59834;52.124;5.422;2022-12-20T12:28:57;2.53;;;1.20;;
71963;SDS011;59834;52.124;5.422;2022-12-20T12:37:22;5.03;;;1.60;;
71963;SDS011;59834;52.124;5.422;2022-12-20T12:45:15;3.47;;;1.08;;
71963;SDS011;59834;52.124;5.422;2022-12-20T12:47:50;6.15;;;1.27;;
71963;SDS011;59834;52.124;5.422;2022-12-20T12:52:50;3.23;;;1.70;;
71963;SDS011;59834;52.124;5.422;2022-12-20T13:11:35;2.30;;;1.80;;
71963;SDS011;59834;52.124;5.422;2022-12-20T13:16:51;3.67;;;1.25;;
71963;SDS011;59834;52.124;5.422;2022-12-20T13:19:47;3.67;;;1.83;;
71963;SDS011;59834;52.124;5.422;2022-12-20T13:37:59;3.92;;;2.05;;
71963;SDS011;59834;52.124;5.422;2022-12-20T13:45:48;3.43;;;1.73;;
71963;SDS011;59834;52.124;5.422;2022-12-20T13:48:19;3.88;;;1.45;;
71963;SDS011;59834;52.124;5.422;2022-12-20T13:50:54;2.67;;;1.58;;
71963;SDS011;59834;52.124;5.422;2022-12-20T13:53:26;3.53;;;1.25;;
71963;SDS011;59834;52.124;5.422;2022-12-20T13:55:57;3.00;;;1.75;;
71963;SDS011;59834;52.124;5.422;2022-12-20T13:58:24;3.37;;;1.07;;
71963;SDS011;59834;52.124;5.422;2022-12-20T14:00:53;3.08;;;1.35;;
71963;SDS011;59834;52.124;5.422;2022-12-20T14:03:31;4.28;;;1.58;;
71963;SDS011;59834;52.124;5.422;2022-12-20T14:06:09;2.40;;;1.55;;
71963;SDS011;59834;52.124;5.422;2022-12-20T14:08:38;2.38;;;1.38;;
71963;SDS011;59834;52.124;5.422;2022-12-20T14:11:25;2.30;;;1.80;;
71963;SDS011;59834;52.124;5.422;2022-12-20T14:13:56;2.10;;;1.40;;
71963;SDS011;59834;52.124;5.422;2022-12-20T14:16:29;2.78;;;1.75;;
71963;SDS011;59834;52.124;5.422;2022-12-20T14:19:01;2.03;;;1.33;;
71963;SDS011;59834;52.124;5.422;2022-12-20T14:21:36;3.05;;;1.52;;
71963;SDS011;59834;52.124;5.422;2022-12-20T14:24:16;2.30;;;1.30;;
71963;SDS011;59834;52.124;5.422;2022-12-20T14:26:49;6.65;;;1.60;;
71963;SDS011;59834;52.124;5.422;2022-12-20T14:29:19;2.65;;;2.08;;
71963;SDS011;59834;52.124;5.422;2022-12-20T14:31:55;2.78;;;1.55;;
71963;SDS011;59834;52.124;5.422;2022-12-20T14:34:25;2.22;;;1.90;;
71963;SDS011;59834;52.124;5.422;2022-12-20T14:40:00;2.60;;;2.15;;
71963;SDS011;59834;52.124;5.422;2022-12-20T14:42:38;3.47;;;1.67;;
71963;SDS011;59834;52.124;5.422;2022-12-20T14:47:35;2.15;;;1.80;;
71963;SDS011;59834;52.124;5.422;2022-12-20T14:50:04;3.30;;;1.73;;
71963;SDS011;59834;52.124;5.422;2022-12-20T14:52:42;3.05;;;1.52;;
71963;SDS011;59834;52.124;5.422;2022-12-20T14:55:20;3.92;;;2.00;;
71963;SDS011;59834;52.124;5.422;2022-12-20T14:57:53;5.18;;;2.28;;
71963;SDS011;59834;52.124;5.422;2022-12-20T15:00:22;2.53;;;1.65;;
71963;SDS011;59834;52.124;5.422;2022-12-20T15:08:10;2.47;;;1.90;;
71963;SDS011;59834;52.124;5.422;2022-12-20T15:11:02;2.20;;;1.70;;
71963;SDS011;59834;52.124;5.422;2022-12-20T15:13:30;3.05;;;1.75;;
71963;SDS011;59834;52.124;5.422;2022-12-20T15:16:05;2.87;;;1.97;;
71963;SDS011;59834;52.124;5.422;2022-12-20T15:18:40;4.28;;;2.08;;
71963;SDS011;59834;52.124;5.422;2022-12-20T15:21:29;4.75;;;1.83;;
71963;SDS011;59834;52.124;5.422;2022-12-20T15:23:56;3.72;;;1.83;;
71963;SDS011;59834;52.124;5.422;2022-12-20T15:26:25;2.40;;;1.90;;
71963;SDS011;59834;52.124;5.422;2022-12-20T15:28:53;4.10;;;2.00;;
71963;SDS011;59834;52.124;5.422;2022-12-20T15:31:20;3.78;;;2.13;;
71963;SDS011;59834;52.124;5.422;2022-12-20T15:33:58;2.80;;;2.50;;
71963;SDS011;59834;52.124;5.422;2022-12-20T15:36:27;2.90;;;2.38;;
71963;SDS011;59834;52.124;5.422;2022-12-20T15:38:55;2.95;;;2.30;;
71963;SDS011;59834;52.124;5.422;2022-12-20T15:41:40;7.80;;;3.00;;
71963;SDS011;59834;52.124;5.422;2022-12-20T15:44:24;3.30;;;2.60;;
71963;SDS011;59834;52.124;5.422;2022-12-20T15:46:53;3.97;;;2.30;;
71963;SDS011;59834;52.124;5.422;2022-12-20T15:49:23;2.97;;;2.25;;
71963;SDS011;59834;52.124;5.422;2022-12-20T15:51:53;3.97;;;2.60;;
71963;SDS011;59834;52.124;5.422;2022-12-20T15:56:55;6.93;;;2.60;;
71963;SDS011;59834;52.124;5.422;2022-12-20T15:59:23;4.18;;;2.67;;
71963;SDS011;59834;52.124;5.422;2022-12-20T16:02:20;5.22;;;3.00;;
71963;SDS011;59834;52.124;5.422;2022-12-20T16:04:51;3.20;;;1.95;;
71963;SDS011;59834;52.124;5.422;2022-12-20T16:07:18;6.00;;;2.60;;
71963;SDS011;59834;52.124;5.422;2022-12-20T16:09:45;4.93;;;2.75;;
71963;SDS011;59834;52.124;5.422;2022-12-20T16:12:15;4.93;;;3.30;;
71963;SDS011;59834;52.124;5.422;2022-12-20T16:14:44;3.40;;;2.80;;
71963;SDS011;59834;52.124;5.422;2022-12-20T16:17:11;3.25;;;2.95;;
71963;SDS011;59834;52.124;5.422;2022-12-20T16:19:40;5.40;;;3.13;;
71963;SDS011;59834;52.124;5.422;2022-12-20T16:22:12;5.50;;;3.00;;
71963;SDS011;59834;52.124;5.422;2022-12-20T16:24:41;5.38;;;3.28;;
71963;SDS011;59834;52.124;5.422;2022-12-20T16:27:08;3.72;;;3.42;;
71963;SDS011;59834;52.124;5.422;2022-12-20T16:29:35;3.53;;;3.22;;
71963;SDS011;59834;52.124;5.422;2022-12-20T16:32:02;5.53;;;4.10;;
71963;SDS011;59834;52.124;5.422;2022-12-20T16:34:33;3.55;;;3.00;;
71963;SDS011;59834;52.124;5.422;2022-12-20T16:36:59;5.28;;;3.83;;
71963;SDS011;59834;52.124;5.422;2022-12-20T16:39:26;7.70;;;3.33;;
71963;SDS011;59834;52.124;5.422;2022-12-20T16:41:52;5.07;;;3.83;;
71963;SDS011;59834;52.124;5.422;2022-12-20T16:44:19;3.90;;;3.37;;
71963;SDS011;59834;52.124;5.422;2022-12-20T16:46:46;3.72;;;3.13;;
71963;SDS011;59834;52.124;5.422;2022-12-20T16:49:13;5.13;;;3.22;;
71963;SDS011;59834;52.124;5.422;2022-12-20T16:51:46;3.65;;;2.92;;
71963;SDS011;59834;52.124;5.422;2022-12-20T16:54:14;4.50;;;3.75;;
71963;SDS011;59834;52.124;5.422;2022-12-20T16:56:46;4.10;;;3.63;;
71963;SDS011;59834;52.124;5.422;2022-12-20T16:59:13;4.15;;;3.50;;
71963;SDS011;59834;52.124;5.422;2022-12-20T17:01:46;3.85;;;3.45;;
71963;SDS011;59834;52.124;5.422;2022-12-20T17:04:15;4.50;;;3.33;;
71963;SDS011;59834;52.124;5.422;2022-12-20T17:06:43;4.30;;;3.40;;
71963;SDS011;59834;52.124;5.422;2022-12-20T17:09:10;4.53;;;3.50;;
71963;SDS011;59834;52.124;5.422;2022-12-20T17:11:37;4.35;;;3.33;;
71963;SDS011;59834;52.124;5.422;2022-12-20T17:14:04;4.90;;;3.15;;
71963;SDS011;59834;52.124;5.422;2022-12-20T17:16:37;3.60;;;2.83;;
71963;SDS011;59834;52.124;5.422;2022-12-20T17:19:04;4.40;;;4.00;;
71963;SDS011;59834;52.124;5.422;2022-12-20T17:24:19;3.63;;;2.95;;